sensor_id;sensor_type;location;lat;lon;timestamp;temperature;humidity
74661;SHT31;63191;39.566;2.654;2023-04-06T00:01:56;12.20;70.00
74661;SHT31;63191;39.566;2.654;2023-04-06T00:04:22;12.20;69.97
74661;SHT31;63191;39.566;2.654;2023-04-06T00:06:47;12.18;69.94
74661;SHT31;63191;39.566;2.654;2023-04-06T00:09:13;12.15;70.00
74661;SHT31;63191;39.566;2.654;2023-04-06T00:11:39;12.12;70.07
74661;SHT31;63191;39.566;2.654;2023-04-06T00:14:06;12.10;70.21
74661;SHT31;63191;39.566;2.654;2023-04-06T00:16:33;12.08;70.36
74661;SHT31;63191;39.566;2.654;2023-04-06T00:18:58;12.05;70.42
74661;SHT31;63191;39.566;2.654;2023-04-06T00:21:24;12.04;70.53
74661;SHT31;63191;39.566;2.654;2023-04-06T00:23:50;12.01;70.63
74661;SHT31;63191;39.566;2.654;2023-04-06T00:26:16;11.98;70.69
74661;SHT31;63191;39.566;2.654;2023-04-06T00:28:42;11.95;70.71
74661;SHT31;63191;39.566;2.654;2023-04-06T00:31:07;11.91;70.77
74661;SHT31;63191;39.566;2.654;2023-04-06T00:33:33;11.89;70.83
74661;SHT31;63191;39.566;2.654;2023-04-06T00:35:59;11.88;70.89
74661;SHT31;63191;39.566;2.654;2023-04-06T00:38:26;11.90;70.90
74661;SHT31;63191;39.566;2.654;2023-04-06T00:40:52;11.91;70.90
74661;SHT31;63191;39.566;2.654;2023-04-06T00:43:18;11.90;70.90
74661;SHT31;63191;39.566;2.654;2023-04-06T00:45:44;11.89;70.94
74661;SHT31;63191;39.566;2.654;2023-04-06T00:48:10;11.87;71.00
74661;SHT31;63191;39.566;2.654;2023-04-06T00:50:36;11.86;71.08
74661;SHT31;63191;39.566;2.654;2023-04-06T00:53:02;11.85;71.10
74661;SHT31;63191;39.566;2.654;2023-04-06T00:55:28;11.82;71.11
74661;SHT31;63191;39.566;2.654;2023-04-06T00:57:54;11.80;71.09
74661;SHT31;63191;39.566;2.654;2023-04-06T01:00:22;11.78;71.04
74661;SHT31;63191;39.566;2.654;2023-04-06T01:02:48;11.74;71.01
74661;SHT31;63191;39.566;2.654;2023-04-06T01:05:14;11.70;71.07
74661;SHT31;63191;39.566;2.654;2023-04-06T01:07:40;11.67;71.06
74661;SHT31;63191;39.566;2.654;2023-04-06T01:10:09;11.63;71.10
74661;SHT31;63191;39.566;2.654;2023-04-06T01:12:37;11.60;71.18
74661;SHT31;63191;39.566;2.654;2023-04-06T01:15:05;11.58;71.31
74661;SHT31;63191;39.566;2.654;2023-04-06T01:17:32;11.58;71.41
74661;SHT31;63191;39.566;2.654;2023-04-06T01:20:05;11.61;71.46
74661;SHT31;63191;39.566;2.654;2023-04-06T01:22:32;11.62;71.49
74661;SHT31;63191;39.566;2.654;2023-04-06T01:24:58;11.62;71.49
74661;SHT31;63191;39.566;2.654;2023-04-06T01:27:23;11.63;71.49
74661;SHT31;63191;39.566;2.654;2023-04-06T01:29:51;11.61;71.50
74661;SHT31;63191;39.566;2.654;2023-04-06T01:32:17;11.60;71.51
74661;SHT31;63191;39.566;2.654;2023-04-06T01:34:43;11.58;71.60
74661;SHT31;63191;39.566;2.654;2023-04-06T01:37:08;11.57;71.60
74661;SHT31;63191;39.566;2.654;2023-04-06T01:39:34;11.56;71.60
74661;SHT31;63191;39.566;2.654;2023-04-06T01:42:00;11.53;71.58
74661;SHT31;63191;39.566;2.654;2023-04-06T01:44:25;11.52;71.51
74661;SHT31;63191;39.566;2.654;2023-04-06T01:46:52;11.51;71.50
74661;SHT31;63191;39.566;2.654;2023-04-06T01:49:17;11.51;71.50
74661;SHT31;63191;39.566;2.654;2023-04-06T01:51:43;11.52;71.60
74661;SHT31;63191;39.566;2.654;2023-04-06T01:54:09;11.52;71.72
74661;SHT31;63191;39.566;2.654;2023-04-06T01:56:35;11.53;71.80
74661;SHT31;63191;39.566;2.654;2023-04-06T01:59:00;11.53;71.80
74661;SHT31;63191;39.566;2.654;2023-04-06T02:01:26;11.53;71.80
74661;SHT31;63191;39.566;2.654;2023-04-06T02:03:52;11.51;71.80
74661;SHT31;63191;39.566;2.654;2023-04-06T02:06:17;11.48;71.80
74661;SHT31;63191;39.566;2.654;2023-04-06T02:08:43;11.46;71.79
74661;SHT31;63191;39.566;2.654;2023-04-06T02:11:11;11.43;71.80
74661;SHT31;63191;39.566;2.654;2023-04-06T02:13:38;11.40;71.84
74661;SHT31;63191;39.566;2.654;2023-04-06T02:16:06;11.38;71.90
74661;SHT31;63191;39.566;2.654;2023-04-06T02:18:33;11.35;71.90
74661;SHT31;63191;39.566;2.654;2023-04-06T02:20:59;11.33;71.90
74661;SHT31;63191;39.566;2.654;2023-04-06T02:23:28;11.34;71.92
74661;SHT31;63191;39.566;2.654;2023-04-06T02:25:54;11.33;71.98
74661;SHT31;63191;39.566;2.654;2023-04-06T02:28:19;11.31;72.00
74661;SHT31;63191;39.566;2.654;2023-04-06T02:30:45;11.31;72.11
74661;SHT31;63191;39.566;2.654;2023-04-06T02:33:11;11.32;72.20
74661;SHT31;63191;39.566;2.654;2023-04-06T02:35:37;11.31;72.20
74661;SHT31;63191;39.566;2.654;2023-04-06T02:38:03;11.31;72.29
74661;SHT31;63191;39.566;2.654;2023-04-06T02:40:29;11.29;72.30
74661;SHT31;63191;39.566;2.654;2023-04-06T02:42:55;11.28;72.30
74661;SHT31;63191;39.566;2.654;2023-04-06T02:45:22;11.30;72.31
74661;SHT31;63191;39.566;2.654;2023-04-06T02:47:49;11.33;72.30
74661;SHT31;63191;39.566;2.654;2023-04-06T02:50:15;11.36;72.34
74661;SHT31;63191;39.566;2.654;2023-04-06T02:52:41;11.39;72.36
74661;SHT31;63191;39.566;2.654;2023-04-06T02:55:07;11.40;72.38
74661;SHT31;63191;39.566;2.654;2023-04-06T02:57:33;11.40;72.36
74661;SHT31;63191;39.566;2.654;2023-04-06T02:59:59;11.41;72.32
74661;SHT31;63191;39.566;2.654;2023-04-06T03:02:25;11.41;72.47
74661;SHT31;63191;39.566;2.654;2023-04-06T03:04:50;11.43;72.44
74661;SHT31;63191;39.566;2.654;2023-04-06T03:07:16;11.41;72.39
74661;SHT31;63191;39.566;2.654;2023-04-06T03:09:45;11.39;72.29
74661;SHT31;63191;39.566;2.654;2023-04-06T03:12:10;11.36;72.21
74661;SHT31;63191;39.566;2.654;2023-04-06T03:14:37;11.32;72.20
74661;SHT31;63191;39.566;2.654;2023-04-06T03:17:03;11.27;72.20
74661;SHT31;63191;39.566;2.654;2023-04-06T03:19:28;11.24;72.17
74661;SHT31;63191;39.566;2.654;2023-04-06T03:21:54;11.21;72.18
74661;SHT31;63191;39.566;2.654;2023-04-06T03:24:20;11.18;72.20
74661;SHT31;63191;39.566;2.654;2023-04-06T03:26:46;11.15;72.23
74661;SHT31;63191;39.566;2.654;2023-04-06T03:29:12;11.11;72.29
74661;SHT31;63191;39.566;2.654;2023-04-06T03:31:37;11.07;72.38
74661;SHT31;63191;39.566;2.654;2023-04-06T03:34:03;11.02;72.49
74661;SHT31;63191;39.566;2.654;2023-04-06T03:36:29;10.98;72.58
74661;SHT31;63191;39.566;2.654;2023-04-06T03:38:55;10.95;72.72
74661;SHT31;63191;39.566;2.654;2023-04-06T03:41:21;10.93;72.85
74661;SHT31;63191;39.566;2.654;2023-04-06T03:43:47;10.91;72.98
74661;SHT31;63191;39.566;2.654;2023-04-06T03:46:13;10.89;73.05
74661;SHT31;63191;39.566;2.654;2023-04-06T03:48:38;10.90;73.12
74661;SHT31;63191;39.566;2.654;2023-04-06T03:51:04;10.89;73.10
74661;SHT31;63191;39.566;2.654;2023-04-06T03:53:30;10.92;73.10
74661;SHT31;63191;39.566;2.654;2023-04-06T03:55:56;10.93;73.11
74661;SHT31;63191;39.566;2.654;2023-04-06T03:58:21;10.96;73.12
74661;SHT31;63191;39.566;2.654;2023-04-06T04:00:47;10.96;73.20
74661;SHT31;63191;39.566;2.654;2023-04-06T04:03:13;10.95;73.20
74661;SHT31;63191;39.566;2.654;2023-04-06T04:05:38;10.95;73.30
74661;SHT31;63191;39.566;2.654;2023-04-06T04:08:04;10.93;73.30
74661;SHT31;63191;39.566;2.654;2023-04-06T04:10:30;10.95;73.40
74661;SHT31;63191;39.566;2.654;2023-04-06T04:12:56;10.93;73.39
74661;SHT31;63191;39.566;2.654;2023-04-06T04:15:21;10.92;73.40
74661;SHT31;63191;39.566;2.654;2023-04-06T04:17:47;10.90;73.39
74661;SHT31;63191;39.566;2.654;2023-04-06T04:20:14;10.87;73.33
74661;SHT31;63191;39.566;2.654;2023-04-06T04:22:41;10.85;73.39
74661;SHT31;63191;39.566;2.654;2023-04-06T04:25:08;10.85;73.40
74661;SHT31;63191;39.566;2.654;2023-04-06T04:27:34;10.86;73.38
74661;SHT31;63191;39.566;2.654;2023-04-06T04:30:00;10.87;73.39
74661;SHT31;63191;39.566;2.654;2023-04-06T04:32:26;10.85;73.38
74661;SHT31;63191;39.566;2.654;2023-04-06T04:34:55;10.84;73.32
74661;SHT31;63191;39.566;2.654;2023-04-06T04:37:20;10.81;73.30
74661;SHT31;63191;39.566;2.654;2023-04-06T04:39:46;10.78;73.34
74661;SHT31;63191;39.566;2.654;2023-04-06T04:42:12;10.74;73.37
74661;SHT31;63191;39.566;2.654;2023-04-06T04:44:38;10.72;73.40
74661;SHT31;63191;39.566;2.654;2023-04-06T04:47:04;10.68;73.37
74661;SHT31;63191;39.566;2.654;2023-04-06T04:49:31;10.63;73.30
74661;SHT31;63191;39.566;2.654;2023-04-06T04:51:56;10.60;73.30
74661;SHT31;63191;39.566;2.654;2023-04-06T04:54:23;10.56;73.30
74661;SHT31;63191;39.566;2.654;2023-04-06T04:56:49;10.53;73.34
74661;SHT31;63191;39.566;2.654;2023-04-06T04:59:16;10.49;73.40
74661;SHT31;63191;39.566;2.654;2023-04-06T05:01:42;10.45;73.47
74661;SHT31;63191;39.566;2.654;2023-04-06T05:04:08;10.42;73.53
74661;SHT31;63191;39.566;2.654;2023-04-06T05:06:34;10.37;73.60
74661;SHT31;63191;39.566;2.654;2023-04-06T05:09:00;10.33;73.68
74661;SHT31;63191;39.566;2.654;2023-04-06T05:11:27;10.29;73.78
74661;SHT31;63191;39.566;2.654;2023-04-06T05:13:53;10.26;73.83
74661;SHT31;63191;39.566;2.654;2023-04-06T05:16:18;10.25;73.91
74661;SHT31;63191;39.566;2.654;2023-04-06T05:18:44;10.27;74.00
74661;SHT31;63191;39.566;2.654;2023-04-06T05:21:10;10.30;74.03
74661;SHT31;63191;39.566;2.654;2023-04-06T05:23:36;10.32;74.09
74661;SHT31;63191;39.566;2.654;2023-04-06T05:26:02;10.34;74.10
74661;SHT31;63191;39.566;2.654;2023-04-06T05:28:29;10.35;74.11
74661;SHT31;63191;39.566;2.654;2023-04-06T05:30:55;10.35;74.10
74661;SHT31;63191;39.566;2.654;2023-04-06T05:33:22;10.36;74.09
74661;SHT31;63191;39.566;2.654;2023-04-06T05:35:50;10.37;74.09
74661;SHT31;63191;39.566;2.654;2023-04-06T05:38:16;10.39;74.09
74661;SHT31;63191;39.566;2.654;2023-04-06T05:40:41;10.42;74.10
74661;SHT31;63191;39.566;2.654;2023-04-06T05:43:07;10.45;74.09
74661;SHT31;63191;39.566;2.654;2023-04-06T05:45:34;10.52;74.10
74661;SHT31;63191;39.566;2.654;2023-04-06T05:48:00;10.63;74.01
74661;SHT31;63191;39.566;2.654;2023-04-06T05:50:27;10.73;73.87
74661;SHT31;63191;39.566;2.654;2023-04-06T05:52:56;10.87;73.72
74661;SHT31;63191;39.566;2.654;2023-04-06T05:55:22;11.04;73.53
74661;SHT31;63191;39.566;2.654;2023-04-06T05:57:48;11.23;73.29
74661;SHT31;63191;39.566;2.654;2023-04-06T06:00:14;11.52;72.84
74661;SHT31;63191;39.566;2.654;2023-04-06T06:02:41;11.99;71.98
74661;SHT31;63191;39.566;2.654;2023-04-06T06:05:08;12.49;70.88
74661;SHT31;63191;39.566;2.654;2023-04-06T06:07:35;12.88;69.95
74661;SHT31;63191;39.566;2.654;2023-04-06T06:10:01;13.44;68.67
74661;SHT31;63191;39.566;2.654;2023-04-06T06:12:27;14.09;67.33
74661;SHT31;63191;39.566;2.654;2023-04-06T06:14:53;14.80;65.92
74661;SHT31;63191;39.566;2.654;2023-04-06T06:17:19;15.49;64.44
74661;SHT31;63191;39.566;2.654;2023-04-06T06:19:45;16.21;62.99
74661;SHT31;63191;39.566;2.654;2023-04-06T06:22:11;16.93;61.34
74661;SHT31;63191;39.566;2.654;2023-04-06T06:24:36;17.51;59.64
74661;SHT31;63191;39.566;2.654;2023-04-06T06:27:02;17.77;58.35
74661;SHT31;63191;39.566;2.654;2023-04-06T06:29:28;17.84;57.81
74661;SHT31;63191;39.566;2.654;2023-04-06T06:31:54;18.28;56.92
74661;SHT31;63191;39.566;2.654;2023-04-06T06:34:20;18.93;55.56
74661;SHT31;63191;39.566;2.654;2023-04-06T06:36:45;19.60;54.23
74661;SHT31;63191;39.566;2.654;2023-04-06T06:39:11;20.37;52.89
74661;SHT31;63191;39.566;2.654;2023-04-06T06:41:37;21.09;51.44
74661;SHT31;63191;39.566;2.654;2023-04-06T06:44:02;21.77;49.79
74661;SHT31;63191;39.566;2.654;2023-04-06T06:46:28;22.47;48.28
74661;SHT31;63191;39.566;2.654;2023-04-06T06:48:58;23.19;46.96
74661;SHT31;63191;39.566;2.654;2023-04-06T06:51:24;23.87;45.61
74661;SHT31;63191;39.566;2.654;2023-04-06T06:53:50;24.53;44.19
74661;SHT31;63191;39.566;2.654;2023-04-06T06:56:15;25.20;42.59
74661;SHT31;63191;39.566;2.654;2023-04-06T06:58:41;25.82;41.08
74661;SHT31;63191;39.566;2.654;2023-04-06T07:01:07;26.39;39.96
74661;SHT31;63191;39.566;2.654;2023-04-06T07:03:33;26.96;38.97
74661;SHT31;63191;39.566;2.654;2023-04-06T07:05:58;27.55;37.85
74661;SHT31;63191;39.566;2.654;2023-04-06T07:08:24;28.08;36.91
74661;SHT31;63191;39.566;2.654;2023-04-06T07:10:51;28.58;35.83
74661;SHT31;63191;39.566;2.654;2023-04-06T07:13:20;29.08;34.83
74661;SHT31;63191;39.566;2.654;2023-04-06T07:15:51;29.47;33.98
74661;SHT31;63191;39.566;2.654;2023-04-06T07:18:17;29.80;33.10
74661;SHT31;63191;39.566;2.654;2023-04-06T07:20:44;30.05;32.40
74661;SHT31;63191;39.566;2.654;2023-04-06T07:23:10;30.22;32.07
74661;SHT31;63191;39.566;2.654;2023-04-06T07:25:35;30.35;31.60
74661;SHT31;63191;39.566;2.654;2023-04-06T07:28:02;29.99;31.74
74661;SHT31;63191;39.566;2.654;2023-04-06T07:30:28;28.75;32.78
74661;SHT31;63191;39.566;2.654;2023-04-06T07:32:55;27.62;33.47
74661;SHT31;63191;39.566;2.654;2023-04-06T07:35:21;26.61;34.16
74661;SHT31;63191;39.566;2.654;2023-04-06T07:37:48;25.69;35.04
74661;SHT31;63191;39.566;2.654;2023-04-06T07:40:14;24.93;36.02
74661;SHT31;63191;39.566;2.654;2023-04-06T07:42:40;24.25;37.04
74661;SHT31;63191;39.566;2.654;2023-04-06T07:45:06;23.78;37.91
74661;SHT31;63191;39.566;2.654;2023-04-06T07:47:32;23.36;38.47
74661;SHT31;63191;39.566;2.654;2023-04-06T07:49:58;22.90;38.97
74661;SHT31;63191;39.566;2.654;2023-04-06T07:52:24;22.77;39.18
74661;SHT31;63191;39.566;2.654;2023-04-06T07:54:50;22.50;39.34
74661;SHT31;63191;39.566;2.654;2023-04-06T07:57:16;22.08;40.04
74661;SHT31;63191;39.566;2.654;2023-04-06T07:59:42;21.92;40.60
74661;SHT31;63191;39.566;2.654;2023-04-06T08:02:08;21.92;40.67
74661;SHT31;63191;39.566;2.654;2023-04-06T08:04:34;21.64;41.23
74661;SHT31;63191;39.566;2.654;2023-04-06T08:07:01;21.46;41.69
74661;SHT31;63191;39.566;2.654;2023-04-06T08:09:27;21.68;41.90
74661;SHT31;63191;39.566;2.654;2023-04-06T08:11:53;21.88;41.54
74661;SHT31;63191;39.566;2.654;2023-04-06T08:14:18;21.57;41.99
74661;SHT31;63191;39.566;2.654;2023-04-06T08:16:45;21.42;42.74
74661;SHT31;63191;39.566;2.654;2023-04-06T08:19:11;21.57;42.81
74661;SHT31;63191;39.566;2.654;2023-04-06T08:21:37;21.82;42.25
74661;SHT31;63191;39.566;2.654;2023-04-06T08:24:03;21.75;42.36
74661;SHT31;63191;39.566;2.654;2023-04-06T08:26:31;21.61;42.53
74661;SHT31;63191;39.566;2.654;2023-04-06T08:28:57;21.52;42.49
74661;SHT31;63191;39.566;2.654;2023-04-06T08:31:24;21.85;41.57
74661;SHT31;63191;39.566;2.654;2023-04-06T08:33:50;22.10;41.56
74661;SHT31;63191;39.566;2.654;2023-04-06T08:36:16;21.78;41.91
74661;SHT31;63191;39.566;2.654;2023-04-06T08:38:47;21.46;42.33
74661;SHT31;63191;39.566;2.654;2023-04-06T08:41:14;21.33;43.08
74661;SHT31;63191;39.566;2.654;2023-04-06T08:43:49;21.71;42.80
74661;SHT31;63191;39.566;2.654;2023-04-06T08:46:20;22.19;41.70
74661;SHT31;63191;39.566;2.654;2023-04-06T08:48:47;21.99;41.79
74661;SHT31;63191;39.566;2.654;2023-04-06T08:51:16;21.61;42.44
74661;SHT31;63191;39.566;2.654;2023-04-06T08:53:44;21.41;43.10
74661;SHT31;63191;39.566;2.654;2023-04-06T08:56:10;21.40;43.45
74661;SHT31;63191;39.566;2.654;2023-04-06T08:58:37;21.80;42.64
74661;SHT31;63191;39.566;2.654;2023-04-06T09:01:06;22.27;41.90
74661;SHT31;63191;39.566;2.654;2023-04-06T09:03:38;22.16;42.25
74661;SHT31;63191;39.566;2.654;2023-04-06T09:06:06;21.85;42.89
74661;SHT31;63191;39.566;2.654;2023-04-06T09:08:33;21.57;43.21
74661;SHT31;63191;39.566;2.654;2023-04-06T09:11:01;21.36;43.55
74661;SHT31;63191;39.566;2.654;2023-04-06T09:13:28;21.03;43.62
74661;SHT31;63191;39.566;2.654;2023-04-06T09:18:33;20.78;44.92
74661;SHT31;63191;39.566;2.654;2023-04-06T09:21:03;20.75;45.04
74661;SHT31;63191;39.566;2.654;2023-04-06T09:23:30;20.63;44.89
74661;SHT31;63191;39.566;2.654;2023-04-06T09:26:10;20.51;45.39
74661;SHT31;63191;39.566;2.654;2023-04-06T09:28:50;20.43;46.10
74661;SHT31;63191;39.566;2.654;2023-04-06T09:31:24;20.67;46.95
74661;SHT31;63191;39.566;2.654;2023-04-06T09:33:57;21.43;45.64
74661;SHT31;63191;39.566;2.654;2023-04-06T09:36:34;21.86;43.82
74661;SHT31;63191;39.566;2.654;2023-04-06T09:39:06;21.79;43.74
74661;SHT31;63191;39.566;2.654;2023-04-06T09:41:34;21.34;44.74
74661;SHT31;63191;39.566;2.654;2023-04-06T09:44:04;21.03;45.30
74661;SHT31;63191;39.566;2.654;2023-04-06T09:46:45;20.83;45.78
74661;SHT31;63191;39.566;2.654;2023-04-06T09:49:12;20.63;45.86
74661;SHT31;63191;39.566;2.654;2023-04-06T09:51:45;20.49;46.52
74661;SHT31;63191;39.566;2.654;2023-04-06T09:54:18;20.94;46.07
74661;SHT31;63191;39.566;2.654;2023-04-06T09:56:51;21.64;44.68
74661;SHT31;63191;39.566;2.654;2023-04-06T10:07:54;21.39;45.08
74661;SHT31;63191;39.566;2.654;2023-04-06T10:10:25;21.27;44.66
74661;SHT31;63191;39.566;2.654;2023-04-06T10:12:52;21.11;44.96
74661;SHT31;63191;39.566;2.654;2023-04-06T10:15:21;21.03;45.40
74661;SHT31;63191;39.566;2.654;2023-04-06T10:17:47;21.26;45.28
74661;SHT31;63191;39.566;2.654;2023-04-06T10:20:18;21.71;44.28
74661;SHT31;63191;39.566;2.654;2023-04-06T10:23:08;22.13;43.06
74661;SHT31;63191;39.566;2.654;2023-04-06T10:25:51;22.09;42.75
74661;SHT31;63191;39.566;2.654;2023-04-06T10:28:19;21.49;43.28
74661;SHT31;63191;39.566;2.654;2023-04-06T10:30:45;21.03;44.22
74661;SHT31;63191;39.566;2.654;2023-04-06T10:35:43;20.71;45.13
74661;SHT31;63191;39.566;2.654;2023-04-06T10:38:09;20.55;45.69
74661;SHT31;63191;39.566;2.654;2023-04-06T10:40:37;20.40;46.02
74661;SHT31;63191;39.566;2.654;2023-04-06T10:43:08;20.26;46.30
74661;SHT31;63191;39.566;2.654;2023-04-06T10:45:36;20.16;47.01
74661;SHT31;63191;39.566;2.654;2023-04-06T10:48:12;20.09;47.27
74661;SHT31;63191;39.566;2.654;2023-04-06T10:50:49;19.97;47.74
74661;SHT31;63191;39.566;2.654;2023-04-06T10:53:25;19.91;48.16
74661;SHT31;63191;39.566;2.654;2023-04-06T10:55:52;19.79;48.43
74661;SHT31;63191;39.566;2.654;2023-04-06T10:58:24;19.65;49.41
74661;SHT31;63191;39.566;2.654;2023-04-06T11:00:51;19.61;49.98
74661;SHT31;63191;39.566;2.654;2023-04-06T11:03:17;19.82;49.93
74661;SHT31;63191;39.566;2.654;2023-04-06T11:05:44;20.21;49.51
74661;SHT31;63191;39.566;2.654;2023-04-06T11:08:28;20.75;49.19
74661;SHT31;63191;39.566;2.654;2023-04-06T11:11:09;21.45;48.24
74661;SHT31;63191;39.566;2.654;2023-04-06T11:13:50;21.97;44.79
74661;SHT31;63191;39.566;2.654;2023-04-06T11:16:17;22.21;44.10
74661;SHT31;63191;39.566;2.654;2023-04-06T11:18:57;22.43;43.82
74661;SHT31;63191;39.566;2.654;2023-04-06T11:21:38;22.30;44.24
74661;SHT31;63191;39.566;2.654;2023-04-06T11:24:12;21.81;44.82
74661;SHT31;63191;39.566;2.654;2023-04-06T11:37:26;20.67;48.23
74661;SHT31;63191;39.566;2.654;2023-04-06T11:40:25;20.45;48.51
74661;SHT31;63191;39.566;2.654;2023-04-06T11:42:53;20.19;49.06
74661;SHT31;63191;39.566;2.654;2023-04-06T11:45:40;20.01;48.73
74661;SHT31;63191;39.566;2.654;2023-04-06T11:48:17;19.93;49.92
74661;SHT31;63191;39.566;2.654;2023-04-06T11:50:46;19.80;49.79
74661;SHT31;63191;39.566;2.654;2023-04-06T11:53:22;19.66;50.02
74661;SHT31;63191;39.566;2.654;2023-04-06T11:58:14;19.58;51.18
74661;SHT31;63191;39.566;2.654;2023-04-06T12:00:40;19.65;51.77
74661;SHT31;63191;39.566;2.654;2023-04-06T12:06:08;19.91;50.51
74661;SHT31;63191;39.566;2.654;2023-04-06T12:08:39;20.13;49.96
74661;SHT31;63191;39.566;2.654;2023-04-06T12:11:06;20.51;48.77
74661;SHT31;63191;39.566;2.654;2023-04-06T12:13:34;21.11;48.67
74661;SHT31;63191;39.566;2.654;2023-04-06T12:16:01;22.11;47.37
74661;SHT31;63191;39.566;2.654;2023-04-06T12:18:27;23.26;44.36
74661;SHT31;63191;39.566;2.654;2023-04-06T12:20:52;24.39;40.98
74661;SHT31;63191;39.566;2.654;2023-04-06T12:23:19;25.62;39.70
74661;SHT31;63191;39.566;2.654;2023-04-06T12:25:45;26.74;38.01
74661;SHT31;63191;39.566;2.654;2023-04-06T12:28:11;27.44;36.17
74661;SHT31;63191;39.566;2.654;2023-04-06T12:30:40;27.78;35.67
74661;SHT31;63191;39.566;2.654;2023-04-06T12:33:11;28.31;34.97
74661;SHT31;63191;39.566;2.654;2023-04-06T12:35:42;29.26;34.22
74661;SHT31;63191;39.566;2.654;2023-04-06T12:38:08;30.26;32.12
74661;SHT31;63191;39.566;2.654;2023-04-06T12:40:39;31.06;30.65
74661;SHT31;63191;39.566;2.654;2023-04-06T12:43:06;31.49;30.57
74661;SHT31;63191;39.566;2.654;2023-04-06T12:45:32;31.67;29.61
74661;SHT31;63191;39.566;2.654;2023-04-06T12:47:58;31.78;29.49
74661;SHT31;63191;39.566;2.654;2023-04-06T12:50:23;31.90;29.48
74661;SHT31;63191;39.566;2.654;2023-04-06T12:52:50;32.07;28.21
74661;SHT31;63191;39.566;2.654;2023-04-06T12:55:17;32.28;27.78
74661;SHT31;63191;39.566;2.654;2023-04-06T12:57:44;32.73;27.98
74661;SHT31;63191;39.566;2.654;2023-04-06T13:00:12;33.07;27.30
74661;SHT31;63191;39.566;2.654;2023-04-06T13:02:39;33.58;25.96
74661;SHT31;63191;39.566;2.654;2023-04-06T13:05:11;33.65;26.62
74661;SHT31;63191;39.566;2.654;2023-04-06T13:07:39;33.61;27.18
74661;SHT31;63191;39.566;2.654;2023-04-06T13:10:05;33.75;26.60
74661;SHT31;63191;39.566;2.654;2023-04-06T13:12:31;33.54;26.36
74661;SHT31;63191;39.566;2.654;2023-04-06T13:14:57;33.19;25.54
74661;SHT31;63191;39.566;2.654;2023-04-06T13:17:23;33.03;27.13
74661;SHT31;63191;39.566;2.654;2023-04-06T13:19:52;32.90;26.53
74661;SHT31;63191;39.566;2.654;2023-04-06T13:22:20;32.71;26.59
74661;SHT31;63191;39.566;2.654;2023-04-06T13:24:46;32.58;25.72
74661;SHT31;63191;39.566;2.654;2023-04-06T13:27:12;32.04;25.92
74661;SHT31;63191;39.566;2.654;2023-04-06T13:29:38;31.23;27.92
74661;SHT31;63191;39.566;2.654;2023-04-06T13:32:03;30.47;27.94
74661;SHT31;63191;39.566;2.654;2023-04-06T13:34:30;29.60;28.51
74661;SHT31;63191;39.566;2.654;2023-04-06T13:36:56;28.63;30.51
74661;SHT31;63191;39.566;2.654;2023-04-06T13:39:21;27.43;31.75
74661;SHT31;63191;39.566;2.654;2023-04-06T13:41:47;26.33;33.20
74661;SHT31;63191;39.566;2.654;2023-04-06T13:44:13;25.39;33.53
74661;SHT31;63191;39.566;2.654;2023-04-06T13:46:41;24.55;35.87
74661;SHT31;63191;39.566;2.654;2023-04-06T13:49:08;24.04;37.75
74661;SHT31;63191;39.566;2.654;2023-04-06T13:51:34;23.63;38.27
74661;SHT31;63191;39.566;2.654;2023-04-06T13:54:00;23.38;39.07
74661;SHT31;63191;39.566;2.654;2023-04-06T13:56:26;23.18;39.96
74661;SHT31;63191;39.566;2.654;2023-04-06T13:58:53;23.07;40.48
74661;SHT31;63191;39.566;2.654;2023-04-06T14:01:20;22.73;40.57
74661;SHT31;63191;39.566;2.654;2023-04-06T14:03:47;22.27;41.42
74661;SHT31;63191;39.566;2.654;2023-04-06T14:06:14;21.75;41.26
74661;SHT31;63191;39.566;2.654;2023-04-06T14:08:40;21.25;42.27
74661;SHT31;63191;39.566;2.654;2023-04-06T14:11:06;20.88;42.06
74661;SHT31;63191;39.566;2.654;2023-04-06T14:13:37;20.58;44.44
74661;SHT31;63191;39.566;2.654;2023-04-06T14:16:03;20.33;44.96
74661;SHT31;63191;39.566;2.654;2023-04-06T14:18:29;20.11;44.69
74661;SHT31;63191;39.566;2.654;2023-04-06T14:20:56;19.83;45.53
74661;SHT31;63191;39.566;2.654;2023-04-06T14:23:27;19.59;46.78
74661;SHT31;63191;39.566;2.654;2023-04-06T14:26:08;19.44;46.97
74661;SHT31;63191;39.566;2.654;2023-04-06T14:28:35;19.40;47.76
74661;SHT31;63191;39.566;2.654;2023-04-06T14:31:09;19.37;47.86
74661;SHT31;63191;39.566;2.654;2023-04-06T14:33:38;19.29;48.11
74661;SHT31;63191;39.566;2.654;2023-04-06T14:36:08;19.21;48.01
74661;SHT31;63191;39.566;2.654;2023-04-06T14:38:37;19.20;48.89
74661;SHT31;63191;39.566;2.654;2023-04-06T14:41:05;19.10;49.00
74661;SHT31;63191;39.566;2.654;2023-04-06T14:43:31;19.05;48.55
74661;SHT31;63191;39.566;2.654;2023-04-06T14:46:00;18.98;49.16
74661;SHT31;63191;39.566;2.654;2023-04-06T14:48:29;18.93;48.39
74661;SHT31;63191;39.566;2.654;2023-04-06T14:50:55;18.84;48.55
74661;SHT31;63191;39.566;2.654;2023-04-06T14:53:24;18.75;50.08
74661;SHT31;63191;39.566;2.654;2023-04-06T14:55:50;18.70;50.28
74661;SHT31;63191;39.566;2.654;2023-04-06T14:58:16;18.68;51.04
74661;SHT31;63191;39.566;2.654;2023-04-06T15:00:45;18.70;50.58
74661;SHT31;63191;39.566;2.654;2023-04-06T15:03:11;18.61;50.24
74661;SHT31;63191;39.566;2.654;2023-04-06T15:05:37;18.47;50.65
74661;SHT31;63191;39.566;2.654;2023-04-06T15:08:02;18.35;51.31
74661;SHT31;63191;39.566;2.654;2023-04-06T15:10:30;18.28;51.39
74661;SHT31;63191;39.566;2.654;2023-04-06T15:12:57;18.26;51.49
74661;SHT31;63191;39.566;2.654;2023-04-06T15:15:23;18.24;51.51
74661;SHT31;63191;39.566;2.654;2023-04-06T15:17:49;18.19;51.68
74661;SHT31;63191;39.566;2.654;2023-04-06T15:20:17;18.13;52.27
74661;SHT31;63191;39.566;2.654;2023-04-06T15:22:43;18.08;52.79
74661;SHT31;63191;39.566;2.654;2023-04-06T15:25:09;18.08;51.60
74661;SHT31;63191;39.566;2.654;2023-04-06T15:27:35;18.09;52.74
74661;SHT31;63191;39.566;2.654;2023-04-06T15:30:01;18.10;53.62
74661;SHT31;63191;39.566;2.654;2023-04-06T15:32:27;18.15;53.48
74661;SHT31;63191;39.566;2.654;2023-04-06T15:34:53;18.13;52.94
74661;SHT31;63191;39.566;2.654;2023-04-06T15:37:19;18.06;53.19
74661;SHT31;63191;39.566;2.654;2023-04-06T15:39:51;18.01;53.15
74661;SHT31;63191;39.566;2.654;2023-04-06T15:42:19;17.98;53.05
74661;SHT31;63191;39.566;2.654;2023-04-06T15:44:53;17.97;53.60
74661;SHT31;63191;39.566;2.654;2023-04-06T15:54:49;17.88;52.43
74661;SHT31;63191;39.566;2.654;2023-04-06T15:57:15;17.84;51.56
74661;SHT31;63191;39.566;2.654;2023-04-06T15:59:53;17.80;52.87
74661;SHT31;63191;39.566;2.654;2023-04-06T16:02:20;17.80;52.49
74661;SHT31;63191;39.566;2.654;2023-04-06T16:04:56;17.75;51.51
74661;SHT31;63191;39.566;2.654;2023-04-06T16:07:23;17.70;51.36
74661;SHT31;63191;39.566;2.654;2023-04-06T16:09:49;17.66;51.05